createdAt,value
2019-05-12T00:00:02.251Z,9.75
2019-05-12T00:00:07.252Z,8.70
2019-05-12T00:00:12.254Z,7.69
2019-05-12T00:00:17.264Z,7.36
2019-05-12T00:00:22.256Z,7.25
2019-05-12T00:00:27.258Z,7.22
2019-05-12T00:00:32.260Z,8.04
2019-05-12T00:00:37.841Z,9.60
2019-05-12T00:00:42.260Z,8.28
2019-05-12T00:00:47.261Z,7.55
2019-05-12T00:00:52.265Z,7.32
2019-05-12T00:00:57.263Z,7.81
2019-05-12T00:01:02.262Z,7.40
2019-05-12T00:01:07.265Z,7.27
2019-05-12T00:01:12.266Z,7.22
2019-05-12T00:01:17.274Z,8.91
2019-05-12T00:01:22.269Z,7.76
2019-05-12T00:01:27.267Z,7.38
2019-05-12T00:01:32.271Z,7.98
2019-05-12T00:01:37.269Z,7.46
2019-05-12T00:01:42.270Z,7.28
2019-05-12T00:01:47.274Z,7.23
2019-05-12T00:01:52.273Z,6.63
2019-05-12T00:01:57.275Z,6.65
2019-05-12T00:02:02.274Z,7.02
2019-05-12T00:02:07.275Z,7.14
2019-05-12T00:02:12.277Z,7.18
2019-05-12T00:02:17.278Z,7.19
2019-05-12T00:02:22.277Z,7.20
2019-05-12T00:02:27.279Z,7.20
2019-05-12T00:02:32.280Z,7.20
2019-05-12T00:02:37.282Z,6.62
2019-05-12T00:02:42.282Z,5.42
2019-05-12T00:02:47.282Z,5.95
2019-05-12T00:02:52.309Z,6.79
2019-05-12T00:02:57.313Z,7.07
2019-05-12T00:03:02.313Z,7.16
2019-05-12T00:03:07.316Z,7.19
2019-05-12T00:03:12.314Z,7.20
2019-05-12T00:03:17.316Z,7.20
2019-05-12T00:03:22.315Z,7.20
2019-05-12T00:03:27.317Z,6.90
2019-05-12T00:03:32.323Z,7.10
2019-05-12T00:03:37.319Z,7.17
2019-05-12T00:03:42.320Z,7.19
2019-05-12T00:03:47.320Z,7.20
2019-05-12T00:03:52.322Z,7.20
2019-05-12T00:03:57.324Z,6.25
2019-05-12T00:04:02.323Z,6.89
2019-05-12T00:04:07.326Z,7.10
2019-05-12T00:04:12.324Z,7.17
2019-05-12T00:04:17.324Z,7.19
2019-05-12T00:04:22.329Z,7.20
2019-05-12T00:04:27.328Z,7.20
2019-05-12T00:04:32.330Z,7.20
2019-05-12T00:04:37.331Z,6.62
2019-05-12T00:04:42.331Z,5.61
2019-05-12T00:04:47.335Z,6.68
2019-05-12T00:04:52.334Z,7.78
2019-05-12T00:04:57.335Z,7.39
2019-05-12T00:05:02.335Z,7.26
2019-05-12T00:05:07.337Z,7.22
2019-05-12T00:05:12.341Z,7.21
2019-05-12T00:05:17.338Z,7.20
2019-05-12T00:05:22.340Z,6.48
2019-05-12T00:05:27.340Z,6.60
2019-05-12T00:05:32.343Z,7.00
2019-05-12T00:05:37.342Z,6.56
2019-05-12T00:05:42.344Z,6.99
2019-05-12T00:05:47.345Z,7.13
2019-05-12T00:05:52.346Z,8.58
2019-05-12T00:05:57.346Z,8.37
2019-05-12T00:06:02.347Z,7.58
2019-05-12T00:06:07.349Z,7.69
2019-05-12T00:06:12.349Z,7.36
2019-05-12T00:06:17.351Z,7.25
2019-05-12T00:06:22.350Z,7.22
2019-05-12T00:06:27.356Z,7.21
2019-05-12T00:06:32.355Z,6.48
2019-05-12T00:06:37.354Z,6.96
2019-05-12T00:06:42.357Z,7.12
2019-05-12T00:06:47.357Z,7.17
2019-05-12T00:06:52.357Z,7.19
2019-05-12T00:06:57.358Z,7.20
2019-05-12T00:07:02.362Z,7.20
2019-05-12T00:07:07.360Z,7.20
2019-05-12T00:07:12.362Z,7.57
2019-05-12T00:07:17.363Z,7.32
2019-05-12T00:07:22.365Z,7.24
2019-05-12T00:07:27.369Z,7.21
2019-05-12T00:07:32.364Z,7.20
2019-05-12T00:07:37.364Z,6.63
2019-05-12T00:07:42.366Z,5.63
2019-05-12T00:07:47.367Z,6.68
2019-05-12T00:07:52.370Z,5.74
2019-05-12T00:07:57.370Z,5.02
2019-05-12T00:08:02.371Z,6.49
2019-05-12T00:08:07.370Z,6.97
2019-05-12T00:08:12.372Z,7.58
2019-05-12T00:08:17.373Z,7.33
2019-05-12T00:08:22.375Z,6.67
2019-05-12T00:08:27.375Z,7.02
2019-05-12T00:08:32.377Z,7.14
2019-05-12T00:08:37.376Z,7.18
2019-05-12T00:08:42.378Z,7.19
2019-05-12T00:08:47.379Z,7.20
2019-05-12T00:08:52.383Z,7.20
2019-05-12T00:08:57.380Z,7.20
2019-05-12T00:09:02.381Z,7.20
2019-05-12T00:09:07.386Z,7.20
2019-05-12T00:09:12.383Z,5.07
2019-05-12T00:09:17.384Z,5.84
2019-05-12T00:09:22.384Z,6.75
2019-05-12T00:09:27.388Z,7.05
2019-05-12T00:09:32.389Z,7.61
2019-05-12T00:09:37.388Z,7.34
2019-05-12T00:09:42.390Z,5.12
2019-05-12T00:09:47.390Z,6.22
2019-05-12T00:09:52.390Z,6.88
2019-05-12T00:09:57.391Z,7.10
2019-05-12T00:10:02.391Z,7.17
2019-05-12T00:10:07.393Z,7.19
2019-05-12T00:10:12.394Z,7.20
2019-05-12T00:10:17.398Z,7.77
2019-05-12T00:10:22.397Z,8.63
2019-05-12T00:10:27.400Z,7.67
2019-05-12T00:10:32.398Z,7.35
2019-05-12T00:10:37.399Z,7.25
2019-05-12T00:10:42.402Z,7.22
2019-05-12T00:10:47.402Z,7.21
2019-05-12T00:10:52.404Z,8.50
2019-05-12T00:10:57.404Z,9.47
2019-05-12T00:11:02.405Z,7.94
2019-05-12T00:11:07.406Z,7.44
2019-05-12T00:11:12.408Z,7.28
2019-05-12T00:11:17.408Z,7.23
2019-05-12T00:11:22.408Z,7.21
2019-05-12T00:11:27.409Z,7.20
2019-05-12T00:11:32.412Z,6.62
2019-05-12T00:11:37.640Z,5.31
2019-05-12T00:11:42.412Z,7.04
2019-05-12T00:11:47.414Z,7.15
2019-05-12T00:11:52.416Z,7.18
2019-05-12T00:11:57.416Z,7.56
2019-05-12T00:12:02.419Z,7.32
2019-05-12T00:12:07.419Z,7.24
2019-05-12T00:12:12.425Z,7.21
2019-05-12T00:12:27.853Z,5.96
2019-05-12T00:12:32.855Z,7.09
2019-05-12T00:12:37.944Z,7.16
2019-05-12T00:12:42.857Z,7.19
2019-05-12T00:12:47.857Z,7.20
2019-05-12T00:12:52.858Z,6.02
2019-05-12T00:12:57.859Z,4.97
2019-05-12T00:13:02.859Z,6.47
2019-05-12T00:13:07.860Z,6.96
2019-05-12T00:13:12.861Z,7.12
2019-05-12T00:13:17.863Z,7.17
2019-05-12T00:13:22.883Z,7.19
2019-05-12T00:13:27.865Z,7.20
2019-05-12T00:13:32.866Z,7.20
2019-05-12T00:13:37.867Z,6.48
2019-05-12T00:13:42.915Z,6.96
2019-05-12T00:13:47.870Z,7.12
2019-05-12T00:13:52.870Z,7.89
2019-05-12T00:13:57.870Z,7.43
2019-05-12T00:14:02.871Z,7.27
2019-05-12T00:14:07.873Z,7.59
2019-05-12T00:14:12.875Z,9.09
2019-05-12T00:14:17.875Z,8.11
2019-05-12T00:14:22.879Z,7.50
2019-05-12T00:14:27.879Z,7.30
2019-05-12T00:14:32.876Z,7.23
2019-05-12T00:14:37.877Z,7.21
2019-05-12T00:14:42.878Z,7.20
2019-05-12T00:14:47.882Z,7.92
2019-05-12T00:14:52.883Z,8.38
2019-05-12T00:14:57.882Z,7.88
2019-05-12T00:15:02.883Z,7.42
2019-05-12T00:15:07.884Z,7.27
2019-05-12T00:15:12.886Z,8.98
2019-05-12T00:15:17.886Z,7.78
2019-05-12T00:15:22.887Z,7.39
2019-05-12T00:15:27.887Z,7.26
2019-05-12T00:15:32.888Z,7.22
2019-05-12T00:15:37.890Z,7.21
2019-05-12T00:15:42.891Z,7.20
2019-05-12T00:15:47.893Z,8.44
2019-05-12T00:15:52.895Z,7.61
2019-05-12T00:15:57.893Z,7.33
2019-05-12T00:16:02.896Z,7.24
2019-05-12T00:16:07.896Z,7.79
2019-05-12T00:16:12.897Z,7.39
2019-05-12T00:16:17.898Z,7.26
2019-05-12T00:16:22.899Z,6.50
2019-05-12T00:16:27.901Z,6.68
2019-05-12T00:16:32.900Z,8.21
2019-05-12T00:16:37.902Z,8.19
2019-05-12T00:16:42.906Z,7.53
2019-05-12T00:16:47.902Z,7.31
2019-05-12T00:16:52.904Z,7.23
2019-05-12T00:16:57.906Z,5.25
2019-05-12T00:17:02.981Z,5.09
2019-05-12T00:17:07.908Z,6.51
2019-05-12T00:17:12.908Z,6.97
2019-05-12T00:17:17.909Z,7.13
2019-05-12T00:17:22.914Z,7.18
2019-05-12T00:17:27.910Z,6.25
2019-05-12T00:17:32.914Z,6.89
2019-05-12T00:17:37.913Z,4.68
2019-05-12T00:17:42.918Z,4.67
2019-05-12T00:17:47.915Z,6.37
2019-05-12T00:17:52.916Z,6.93
2019-05-12T00:17:57.919Z,7.11
2019-05-12T00:18:02.917Z,7.17
2019-05-12T00:18:07.918Z,7.19
2019-05-12T00:18:12.919Z,7.20
2019-05-12T00:18:17.920Z,7.20
2019-05-12T00:18:22.922Z,7.20
2019-05-12T00:18:27.922Z,7.20
2019-05-12T00:18:32.924Z,7.20
2019-05-12T00:18:38.121Z,7.20
2019-05-12T00:18:42.924Z,7.20
2019-05-12T00:18:47.929Z,7.20
2019-05-12T00:18:52.927Z,7.20
2019-05-12T00:18:57.929Z,6.48
2019-05-12T00:19:02.930Z,5.56
2019-05-12T00:19:07.930Z,5.19
2019-05-12T00:19:12.932Z,6.25
2019-05-12T00:19:17.932Z,6.89
2019-05-12T00:19:22.934Z,7.10
2019-05-12T00:19:27.934Z,7.17
2019-05-12T00:19:32.936Z,7.19
2019-05-12T00:19:37.937Z,5.24
2019-05-12T00:19:42.937Z,5.08
2019-05-12T00:19:47.938Z,6.14
2019-05-12T00:19:52.984Z,6.02
2019-05-12T00:19:57.940Z,5.80
2019-05-12T00:20:02.940Z,6.74
2019-05-12T00:20:07.941Z,7.05
2019-05-12T00:20:12.944Z,7.15
2019-05-12T00:20:18.299Z,6.00
2019-05-12T00:20:22.943Z,5.33
2019-05-12T00:20:27.945Z,6.59
2019-05-12T00:20:32.947Z,7.00
2019-05-12T00:20:37.947Z,7.13
2019-05-12T00:20:42.949Z,7.18
2019-05-12T00:20:47.955Z,7.19
2019-05-12T00:20:52.952Z,7.20
2019-05-12T00:20:57.951Z,6.16
2019-05-12T00:21:02.955Z,6.57
2019-05-12T00:21:07.955Z,6.16
2019-05-12T00:21:12.960Z,6.86
2019-05-12T00:21:17.960Z,7.09
2019-05-12T00:21:22.957Z,7.88
2019-05-12T00:21:27.957Z,7.42
2019-05-12T00:21:32.960Z,7.27
2019-05-12T00:21:37.961Z,7.22
2019-05-12T00:21:42.967Z,7.21
2019-05-12T00:21:47.960Z,7.20
2019-05-12T00:21:52.963Z,6.08
2019-05-12T00:21:57.972Z,6.83
2019-05-12T00:22:02.965Z,7.08
2019-05-12T00:22:07.968Z,7.16
2019-05-12T00:22:13.361Z,7.91
2019-05-12T00:22:17.969Z,7.43
2019-05-12T00:22:22.968Z,7.28
2019-05-12T00:22:27.970Z,7.22
2019-05-12T00:22:32.969Z,8.39
2019-05-12T00:22:37.970Z,7.59
2019-05-12T00:22:42.973Z,8.51
2019-05-12T00:22:47.972Z,7.63
2019-05-12T00:22:52.974Z,7.34
2019-05-12T00:22:57.974Z,7.25
2019-05-12T00:23:02.976Z,7.22
2019-05-12T00:23:07.976Z,8.39
2019-05-12T00:23:12.979Z,9.71
2019-05-12T00:23:17.978Z,10.44
2019-05-12T00:23:22.978Z,8.63
2019-05-12T00:23:27.981Z,7.67
2019-05-12T00:23:32.983Z,9.48
2019-05-12T00:23:37.981Z,9.07
2019-05-12T00:23:42.984Z,8.39
2019-05-12T00:23:47.984Z,7.88
2019-05-12T00:23:52.984Z,7.42
2019-05-12T00:23:57.987Z,7.27
2019-05-12T00:24:02.986Z,9.35
2019-05-12T00:24:07.987Z,9.75
2019-05-12T00:24:12.988Z,8.04
2019-05-12T00:24:17.989Z,7.93
2019-05-12T00:24:22.992Z,7.44
2019-05-12T00:24:27.992Z,9.40
2019-05-12T00:24:33.033Z,10.34
2019-05-12T00:24:38.035Z,10.07
2019-05-12T00:24:43.042Z,8.14
2019-05-12T00:24:48.062Z,9.27
2019-05-12T00:24:53.036Z,9.93
2019-05-12T00:24:58.036Z,10.51
2019-05-12T00:25:03.039Z,8.58
2019-05-12T00:25:08.040Z,7.65
2019-05-12T00:25:13.041Z,7.35
2019-05-12T00:25:18.431Z,7.25
2019-05-12T00:25:23.042Z,10.06
2019-05-12T00:25:28.043Z,10.56
2019-05-12T00:25:33.043Z,9.42
2019-05-12T00:25:38.047Z,7.93
2019-05-12T00:25:43.048Z,7.44
2019-05-12T00:25:48.048Z,7.28
2019-05-12T00:25:53.050Z,7.80
2019-05-12T00:25:58.051Z,9.45
2019-05-12T00:26:03.050Z,11.30
2019-05-12T00:26:08.054Z,11.72
2019-05-12T00:26:13.053Z,11.10
2019-05-12T00:26:18.053Z,10.18
2019-05-12T00:26:23.056Z,8.47
2019-05-12T00:26:28.056Z,7.62
2019-05-12T00:26:33.058Z,7.34
2019-05-12T00:26:38.058Z,7.24
2019-05-12T00:26:43.060Z,7.21
2019-05-12T00:26:48.061Z,7.20
2019-05-12T00:26:53.137Z,7.20
2019-05-12T00:26:58.061Z,7.92
2019-05-12T00:27:03.063Z,9.14
2019-05-12T00:27:08.063Z,8.13
2019-05-12T00:27:13.065Z,7.50
2019-05-12T00:27:18.065Z,7.30
2019-05-12T00:27:23.068Z,7.23
2019-05-12T00:27:28.069Z,8.97
2019-05-12T00:27:33.068Z,10.20
2019-05-12T00:27:38.068Z,10.60
2019-05-12T00:27:43.072Z,10.74
2019-05-12T00:27:48.070Z,10.78
2019-05-12T00:27:53.073Z,10.79
2019-05-12T00:27:58.075Z,10.80
2019-05-12T00:28:03.073Z,9.85
2019-05-12T00:28:08.354Z,10.49
2019-05-12T00:28:13.076Z,11.53
2019-05-12T00:28:18.077Z,11.61
2019-05-12T00:28:23.076Z,13.49
2019-05-12T00:28:28.078Z,11.68
2019-05-12T00:28:33.079Z,11.09
2019-05-12T00:28:38.079Z,10.60
2019-05-12T00:28:43.082Z,10.73
2019-05-12T00:28:48.082Z,10.20
2019-05-12T00:28:53.085Z,10.60
2019-05-12T00:28:58.085Z,10.74
2019-05-12T00:29:03.085Z,10.78
2019-05-12T00:29:08.088Z,8.95
2019-05-12T00:29:13.087Z,9.73
2019-05-12T00:29:18.088Z,10.45
2019-05-12T00:29:23.093Z,8.63
2019-05-12T00:29:28.091Z,7.67
2019-05-12T00:29:33.111Z,7.35
2019-05-12T00:29:38.094Z,7.71
2019-05-12T00:29:43.093Z,9.49
2019-05-12T00:29:48.094Z,10.37
2019-05-12T00:29:53.095Z,10.66
2019-05-12T00:29:58.097Z,10.75
2019-05-12T00:30:03.098Z,10.49
2019-05-12T00:30:08.098Z,9.98
2019-05-12T00:30:13.102Z,8.11
2019-05-12T00:30:18.100Z,9.26
2019-05-12T00:30:23.103Z,9.00
2019-05-12T00:30:28.102Z,8.54
2019-05-12T00:30:33.104Z,9.40
2019-05-12T00:30:38.105Z,8.38
2019-05-12T00:30:43.106Z,7.59
2019-05-12T00:30:48.107Z,9.08
2019-05-12T00:30:53.107Z,9.66
2019-05-12T00:30:58.106Z,8.01
2019-05-12T00:31:03.109Z,7.46
2019-05-12T00:31:08.109Z,7.29
2019-05-12T00:31:13.109Z,7.23
2019-05-12T00:31:18.111Z,7.21
2019-05-12T00:31:23.112Z,7.96
2019-05-12T00:31:28.116Z,7.45
2019-05-12T00:31:33.116Z,7.58
2019-05-12T00:31:38.114Z,8.04
2019-05-12T00:31:43.116Z,8.31
2019-05-12T00:31:48.120Z,7.56
2019-05-12T00:31:53.118Z,7.32
2019-05-12T00:31:58.119Z,7.24
2019-05-12T00:32:03.123Z,9.63
2019-05-12T00:32:08.123Z,9.70
2019-05-12T00:32:13.123Z,8.31
2019-05-12T00:32:18.124Z,7.56
2019-05-12T00:32:23.126Z,8.19
2019-05-12T00:32:28.126Z,8.24
2019-05-12T00:32:33.130Z,7.54
2019-05-12T00:32:38.236Z,9.27
2019-05-12T00:32:43.128Z,9.28
2019-05-12T00:32:48.128Z,9.12
2019-05-12T00:32:53.131Z,9.53
2019-05-12T00:32:58.131Z,7.96
2019-05-12T00:33:03.132Z,7.45
2019-05-12T00:33:08.135Z,7.28
2019-05-12T00:33:13.134Z,7.69
2019-05-12T00:33:18.137Z,7.36
2019-05-12T00:33:23.137Z,9.38
2019-05-12T00:33:28.137Z,10.33
2019-05-12T00:33:33.139Z,10.65
2019-05-12T00:33:38.140Z,9.09
2019-05-12T00:33:43.141Z,7.82
2019-05-12T00:33:48.141Z,7.40
2019-05-12T00:33:53.143Z,7.27
2019-05-12T00:33:58.142Z,7.59
2019-05-12T00:34:03.144Z,7.33
2019-05-12T00:34:08.163Z,7.24
2019-05-12T00:34:13.153Z,7.93
2019-05-12T00:34:18.147Z,9.57
2019-05-12T00:34:23.148Z,8.34
2019-05-12T00:34:28.151Z,7.57
2019-05-12T00:34:33.150Z,8.04
2019-05-12T00:34:38.153Z,9.14
2019-05-12T00:34:43.151Z,9.50
2019-05-12T00:34:48.153Z,8.32
2019-05-12T00:34:53.153Z,8.75
2019-05-12T00:34:58.156Z,9.37
2019-05-12T00:35:03.155Z,8.28
2019-05-12T00:35:08.157Z,7.85
2019-05-12T00:35:13.158Z,7.41
2019-05-12T00:35:18.157Z,8.03
2019-05-12T00:35:23.159Z,8.80
2019-05-12T00:35:28.161Z,7.73
2019-05-12T00:35:33.161Z,7.37
2019-05-12T00:35:38.162Z,7.55
2019-05-12T00:35:43.165Z,8.04
2019-05-12T00:35:48.163Z,7.47
2019-05-12T00:35:53.165Z,7.29
2019-05-12T00:35:58.167Z,7.23
2019-05-12T00:36:03.166Z,8.62
2019-05-12T00:36:08.167Z,9.72
2019-05-12T00:36:13.172Z,10.44
2019-05-12T00:36:18.170Z,10.68
2019-05-12T00:36:23.170Z,8.71
2019-05-12T00:36:28.171Z,7.69
2019-05-12T00:36:33.173Z,8.08
2019-05-12T00:36:38.178Z,9.61
2019-05-12T00:36:43.220Z,10.04
2019-05-12T00:36:48.423Z,10.55
2019-05-12T00:36:53.179Z,10.72
2019-05-12T00:36:58.178Z,10.77
2019-05-12T00:37:03.178Z,10.79
2019-05-12T00:37:08.179Z,10.80
2019-05-12T00:37:13.180Z,10.80
2019-05-12T00:37:18.181Z,10.08
2019-05-12T00:37:23.181Z,8.90
2019-05-12T00:37:28.183Z,8.77
2019-05-12T00:37:33.185Z,8.95
2019-05-12T00:37:38.184Z,9.83
2019-05-12T00:37:43.186Z,10.48
2019-05-12T00:37:48.188Z,10.70
2019-05-12T00:37:53.189Z,10.47
2019-05-12T00:37:58.189Z,10.69
2019-05-12T00:38:03.191Z,10.76
2019-05-12T00:38:08.193Z,10.42
2019-05-12T00:38:13.193Z,10.10
2019-05-12T00:38:18.193Z,10.57
2019-05-12T00:38:23.195Z,10.72
2019-05-12T00:38:28.409Z,10.78
2019-05-12T00:38:33.196Z,10.22
2019-05-12T00:38:38.196Z,10.61
2019-05-12T00:38:43.198Z,10.74
2019-05-12T00:38:48.198Z,10.06
2019-05-12T00:38:53.206Z,10.56
2019-05-12T00:38:58.201Z,9.42
2019-05-12T00:39:03.202Z,9.59
2019-05-12T00:39:08.205Z,10.40
2019-05-12T00:39:13.208Z,10.21
2019-05-12T00:39:18.210Z,10.61
2019-05-12T00:39:23.206Z,10.74
2019-05-12T00:39:28.206Z,10.78
2019-05-12T00:39:33.206Z,10.79
2019-05-12T00:39:38.206Z,10.80
2019-05-12T00:39:43.209Z,10.80
2019-05-12T00:39:48.209Z,10.34
2019-05-12T00:39:53.211Z,10.65
2019-05-12T00:39:58.212Z,10.75
2019-05-12T00:40:03.214Z,10.78
2019-05-12T00:40:08.216Z,10.79
2019-05-12T00:40:13.216Z,10.80
2019-05-12T00:40:18.215Z,10.80
2019-05-12T00:40:23.218Z,10.80
2019-05-12T00:40:28.625Z,10.51
2019-05-12T00:40:33.220Z,10.70
2019-05-12T00:40:38.220Z,10.77
2019-05-12T00:40:43.220Z,10.79
2019-05-12T00:40:48.223Z,10.80
2019-05-12T00:40:53.222Z,10.80
2019-05-12T00:40:58.225Z,10.22
2019-05-12T00:41:03.227Z,10.32
2019-05-12T00:41:08.226Z,10.64
2019-05-12T00:41:13.226Z,9.45
2019-05-12T00:41:18.230Z,8.51
2019-05-12T00:41:23.229Z,10.05
2019-05-12T00:41:28.230Z,10.55
2019-05-12T00:41:33.231Z,10.72
2019-05-12T00:41:38.233Z,10.77
2019-05-12T00:41:43.656Z,10.79
2019-05-12T00:41:48.234Z,10.80
2019-05-12T00:41:53.270Z,10.80
2019-05-12T00:41:58.272Z,11.52
2019-05-12T00:42:03.274Z,13.46
2019-05-12T00:42:08.274Z,13.72
2019-05-12T00:42:13.277Z,14.18
2019-05-12T00:42:18.275Z,13.61
2019-05-12T00:42:23.277Z,13.05
2019-05-12T00:42:28.278Z,11.54
2019-05-12T00:42:33.279Z,12.08
2019-05-12T00:42:38.280Z,11.68
2019-05-12T00:42:43.280Z,12.38
2019-05-12T00:42:48.283Z,13.16
2019-05-12T00:42:53.282Z,11.87
2019-05-12T00:42:58.288Z,11.15
2019-05-12T00:43:03.286Z,12.15
2019-05-12T00:43:08.284Z,13.37
2019-05-12T00:43:13.288Z,14.06
2019-05-12T00:43:18.499Z,13.25
2019-05-12T00:43:23.289Z,13.73
2019-05-12T00:43:28.291Z,14.18
2019-05-12T00:43:33.292Z,12.57
2019-05-12T00:43:38.292Z,12.47
2019-05-12T00:43:43.293Z,13.47
2019-05-12T00:43:48.294Z,11.68
2019-05-12T00:43:53.295Z,11.09
2019-05-12T00:43:58.296Z,10.89
2019-05-12T00:44:03.438Z,10.83
2019-05-12T00:44:08.297Z,10.81
2019-05-12T00:44:13.301Z,11.93
2019-05-12T00:44:18.298Z,9.87
2019-05-12T00:44:23.300Z,11.79
2019-05-12T00:44:28.300Z,13.08
2019-05-12T00:44:33.302Z,13.25
2019-05-12T00:44:38.304Z,11.60
2019-05-12T00:44:43.305Z,12.73
2019-05-12T00:44:48.306Z,13.56
2019-05-12T00:44:53.305Z,13.40
2019-05-12T00:44:58.307Z,11.65
2019-05-12T00:45:03.309Z,11.08
2019-05-12T00:45:08.313Z,10.89
2019-05-12T00:45:13.312Z,12.67
2019-05-12T00:45:18.312Z,12.24
2019-05-12T00:45:23.313Z,11.27
2019-05-12T00:45:28.315Z,10.96
2019-05-12T00:45:33.316Z,12.15
2019-05-12T00:45:38.868Z,11.24
2019-05-12T00:45:43.316Z,10.94
2019-05-12T00:45:48.318Z,11.31
2019-05-12T00:45:53.319Z,10.97
2019-05-12T00:45:58.319Z,10.85
2019-05-12T00:46:03.320Z,10.82
2019-05-12T00:46:08.321Z,10.81
2019-05-12T00:46:13.321Z,12.93
2019-05-12T00:46:18.323Z,12.22
2019-05-12T00:46:23.325Z,11.98
2019-05-12T00:46:28.325Z,13.61
2019-05-12T00:46:33.827Z,14.14
2019-05-12T00:46:38.326Z,13.60
2019-05-12T00:46:43.328Z,11.72
2019-05-12T00:46:48.329Z,13.23
2019-05-12T00:46:53.331Z,14.02
2019-05-12T00:46:58.329Z,12.15
2019-05-12T00:47:03.659Z,11.24
2019-05-12T00:47:08.333Z,10.94
2019-05-12T00:47:13.335Z,11.57
2019-05-12T00:47:18.335Z,13.10
2019-05-12T00:47:23.336Z,13.68
2019-05-12T00:47:28.336Z,12.50
2019-05-12T00:47:33.336Z,13.78
2019-05-12T00:47:38.338Z,14.20
2019-05-12T00:47:43.339Z,13.87
2019-05-12T00:47:48.341Z,13.51
2019-05-12T00:47:53.341Z,14.11
2019-05-12T00:47:58.341Z,12.18
2019-05-12T00:48:03.345Z,11.25
2019-05-12T00:48:08.345Z,13.37
2019-05-12T00:48:13.344Z,12.77
2019-05-12T00:48:18.345Z,11.44
2019-05-12T00:48:23.346Z,13.14
2019-05-12T00:48:28.348Z,13.62
2019-05-12T00:48:33.351Z,14.14
2019-05-12T00:48:38.349Z,14.32
2019-05-12T00:48:43.349Z,13.08
2019-05-12T00:48:48.352Z,12.58
2019-05-12T00:48:53.352Z,11.38
2019-05-12T00:48:58.353Z,10.99
2019-05-12T00:49:03.355Z,11.58
2019-05-12T00:49:08.356Z,12.76
2019-05-12T00:49:13.356Z,11.74
2019-05-12T00:49:18.358Z,13.23
2019-05-12T00:49:23.582Z,13.26
2019-05-12T00:49:28.360Z,13.31
2019-05-12T00:49:33.361Z,11.62
2019-05-12T00:49:38.361Z,11.07
2019-05-12T00:49:43.368Z,11.61
2019-05-12T00:49:48.362Z,13.19
2019-05-12T00:49:53.365Z,14.00
2019-05-12T00:49:58.364Z,14.27
2019-05-12T00:50:03.367Z,14.36
2019-05-12T00:50:08.368Z,14.39
2019-05-12T00:50:13.368Z,14.40
2019-05-12T00:50:18.369Z,11.98
2019-05-12T00:50:23.574Z,11.19
2019-05-12T00:50:28.371Z,11.80
2019-05-12T00:50:33.678Z,13.25
2019-05-12T00:50:38.694Z,12.47
2019-05-12T00:50:43.376Z,11.35
2019-05-12T00:50:48.377Z,10.98
2019-05-12T00:50:53.376Z,11.43
2019-05-12T00:50:58.616Z,11.01
2019-05-12T00:51:03.379Z,14.29
2019-05-12T00:51:08.378Z,16.32
2019-05-12T00:51:13.382Z,15.69
2019-05-12T00:51:18.381Z,14.82
2019-05-12T00:51:23.381Z,15.11
2019-05-12T00:51:28.387Z,14.63
2019-05-12T00:51:33.383Z,12.63
2019-05-12T00:51:38.384Z,11.40
2019-05-12T00:51:43.386Z,12.70
2019-05-12T00:51:48.387Z,12.14
2019-05-12T00:51:53.631Z,13.37
2019-05-12T00:51:58.390Z,11.64
2019-05-12T00:52:03.392Z,11.54
2019-05-12T00:52:08.391Z,13.09
2019-05-12T00:52:13.394Z,13.60
2019-05-12T00:52:18.392Z,14.14
2019-05-12T00:52:23.394Z,14.31
2019-05-12T00:52:28.433Z,14.74
2019-05-12T00:52:33.397Z,15.09
2019-05-12T00:52:38.403Z,14.63
2019-05-12T00:52:43.397Z,15.23
2019-05-12T00:52:48.399Z,14.67
2019-05-12T00:52:53.399Z,12.36
2019-05-12T00:52:58.400Z,11.68
2019-05-12T00:53:03.401Z,11.81
2019-05-12T00:53:08.402Z,12.68
2019-05-12T00:53:13.402Z,13.26
2019-05-12T00:53:18.402Z,12.27
2019-05-12T00:53:23.403Z,11.28
2019-05-12T00:53:28.405Z,13.01
2019-05-12T00:53:33.406Z,13.37
2019-05-12T00:53:38.408Z,13.40
2019-05-12T00:53:43.408Z,14.07
2019-05-12T00:53:48.408Z,14.29
2019-05-12T00:53:53.410Z,12.82
2019-05-12T00:53:58.412Z,11.46
2019-05-12T00:54:03.412Z,11.02
2019-05-12T00:54:08.427Z,10.87
2019-05-12T00:54:13.414Z,10.82
2019-05-12T00:54:18.418Z,11.53
2019-05-12T00:54:23.415Z,12.33
2019-05-12T00:54:28.476Z,11.97
2019-05-12T00:54:33.419Z,11.90
2019-05-12T00:54:38.419Z,13.29
2019-05-12T00:54:43.419Z,14.04
2019-05-12T00:54:48.422Z,12.52
2019-05-12T00:54:53.423Z,11.36
2019-05-12T00:54:58.423Z,13.41
2019-05-12T00:55:03.424Z,14.07
2019-05-12T00:55:08.425Z,14.29
2019-05-12T00:55:13.425Z,14.37
2019-05-12T00:55:18.695Z,14.39
2019-05-12T00:55:23.430Z,14.40
2019-05-12T00:55:28.433Z,13.68
2019-05-12T00:55:33.430Z,13.59
2019-05-12T00:55:38.430Z,12.47
2019-05-12T00:55:43.432Z,13.77
2019-05-12T00:55:48.433Z,14.19
2019-05-12T00:55:53.434Z,14.70
2019-05-12T00:55:58.434Z,14.50
2019-05-12T00:56:03.439Z,14.43
2019-05-12T00:56:08.435Z,14.41
2019-05-12T00:56:13.437Z,14.40
2019-05-12T00:56:18.438Z,13.07
2019-05-12T00:56:23.440Z,15.44
2019-05-12T00:56:28.440Z,14.74
2019-05-12T00:56:33.441Z,12.75
2019-05-12T00:56:38.443Z,12.62
2019-05-12T00:56:43.443Z,13.82
2019-05-12T00:56:48.445Z,12.16
2019-05-12T00:56:53.445Z,13.67
2019-05-12T00:56:58.445Z,14.16
2019-05-12T00:57:03.447Z,12.56
2019-05-12T00:57:08.447Z,12.67
2019-05-12T00:57:13.450Z,12.36
2019-05-12T00:57:18.451Z,13.07
2019-05-12T00:57:23.451Z,15.26
2019-05-12T00:57:28.453Z,15.05
2019-05-12T00:57:33.457Z,14.61
2019-05-12T00:57:38.454Z,15.19
2019-05-12T00:57:43.456Z,17.08
2019-05-12T00:57:48.457Z,15.28
2019-05-12T00:57:53.460Z,13.36
2019-05-12T00:57:58.458Z,13.34
2019-05-12T00:58:03.460Z,14.05
2019-05-12T00:58:08.460Z,15.58
2019-05-12T00:58:13.461Z,14.79
2019-05-12T00:58:18.463Z,13.81
2019-05-12T00:58:23.463Z,14.21
2019-05-12T00:58:28.463Z,14.34
2019-05-12T00:58:33.464Z,16.80
2019-05-12T00:58:38.465Z,17.61
2019-05-12T00:58:43.466Z,17.87
2019-05-12T00:58:48.471Z,17.96
2019-05-12T00:58:53.470Z,17.99
2019-05-12T00:58:58.470Z,17.28
2019-05-12T00:59:03.470Z,16.01
2019-05-12T00:59:08.470Z,17.35
2019-05-12T00:59:13.474Z,16.09
2019-05-12T00:59:18.474Z,16.08
2019-05-12T00:59:23.474Z,17.07
2019-05-12T00:59:28.475Z,17.33
2019-05-12T00:59:33.477Z,17.78
2019-05-12T00:59:39.011Z,15.51
2019-05-12T00:59:43.479Z,14.76
2019-05-12T00:59:48.480Z,16.94
2019-05-12T00:59:53.481Z,15.90
2019-05-12T00:59:58.481Z,14.89
2019-05-12T01:00:03.482Z,14.56
2019-05-12T01:00:08.485Z,14.45
2019-05-12T01:00:13.484Z,14.42
2019-05-12T01:00:18.486Z,14.41
2019-05-12T01:00:23.485Z,15.12
2019-05-12T01:00:28.489Z,15.01
2019-05-12T01:00:33.492Z,15.89
2019-05-12T01:00:38.489Z,17.31
2019-05-12T01:00:43.492Z,17.77
2019-05-12T01:00:48.491Z,15.51
2019-05-12T01:00:53.560Z,14.76
2019-05-12T01:00:58.493Z,14.52
2019-05-12T01:01:03.494Z,14.44
2019-05-12T01:01:08.494Z,14.41
2019-05-12T01:01:13.495Z,14.40
2019-05-12T01:01:18.498Z,14.40
2019-05-12T01:01:23.497Z,13.68
2019-05-12T01:01:28.499Z,12.76
2019-05-12T01:01:33.499Z,13.57
2019-05-12T01:01:38.560Z,11.71
2019-05-12T01:01:43.703Z,13.52
2019-05-12T01:01:48.503Z,14.48
2019-05-12T01:01:53.507Z,15.18
2019-05-12T01:01:58.507Z,14.66
2019-05-12T01:02:03.506Z,14.12
2019-05-12T01:02:08.509Z,14.31
2019-05-12T01:02:13.506Z,14.95
2019-05-12T01:02:18.509Z,14.58
2019-05-12T01:02:23.510Z,15.29
2019-05-12T01:02:28.510Z,14.11
2019-05-12T01:02:33.513Z,14.01
2019-05-12T01:02:38.511Z,15.10
2019-05-12T01:02:43.514Z,13.22
2019-05-12T01:02:48.519Z,14.01
2019-05-12T01:02:53.517Z,14.27
2019-05-12T01:02:58.588Z,13.64
2019-05-12T01:03:03.524Z,11.73
2019-05-12T01:03:08.519Z,13.58
2019-05-12T01:03:13.522Z,14.71
2019-05-12T01:03:18.528Z,14.50
2019-05-12T01:03:23.523Z,14.43
2019-05-12T01:03:28.522Z,14.41
2019-05-12T01:03:33.522Z,13.37
2019-05-12T01:03:38.524Z,13.40
2019-05-12T01:03:43.525Z,14.07
2019-05-12T01:03:48.527Z,13.92
2019-05-12T01:03:53.526Z,14.24
2019-05-12T01:03:58.575Z,16.01
2019-05-12T01:04:03.577Z,15.22
2019-05-12T01:04:08.576Z,13.63
2019-05-12T01:04:13.629Z,13.69
2019-05-12T01:04:18.577Z,14.17
2019-05-12T01:04:23.579Z,14.32
2019-05-12T01:04:28.832Z,14.37
2019-05-12T01:04:33.580Z,16.09
2019-05-12T01:04:38.582Z,14.95
2019-05-12T01:04:43.583Z,14.58
2019-05-12T01:04:48.586Z,15.04
2019-05-12T01:04:53.588Z,15.27
2019-05-12T01:04:58.587Z,14.69
2019-05-12T01:05:03.587Z,14.49
2019-05-12T01:05:08.589Z,14.43
2019-05-12T01:05:13.686Z,14.41
2019-05-12T01:05:18.593Z,13.83
2019-05-12T01:05:23.593Z,12.09
2019-05-12T01:05:28.599Z,13.35
2019-05-12T01:05:33.594Z,14.05
2019-05-12T01:05:38.594Z,12.16